Time;durP1;ratioP1;P1;durP2;ratioP2;P2;SDS_P1;SDS_P2;PMS_P1;PMS_P2;Temp;Humidity;BMP_temperature;BMP_pressure;BME280_temperature;BME280_humidity;BME280_pressure;Samples;Min_cycle;Max_cycle;Signal;HPM_P1;HPM_P2
2023/12/25 09:08:02;;;;;;;5.33;4.77;;;;;;;10.79;100.00;100636.81;5314311;27;20757;-70
2023/12/25 09:10:34;;;;;;;6.97;6.30;;;;;;;10.87;100.00;100647.63;5296484;28;20036;-70
2023/12/25 09:13:05;;;;;;;5.93;5.43;;;;;;;10.91;100.00;100645.66;5290342;28;20040;-70
2023/12/25 09:15:36;;;;;;;7.37;6.23;;;;;;;10.92;100.00;100649.13;5292415;28;20039;-69
2023/12/25 09:18:08;;;;;;;7.23;6.53;;;;;;;10.93;100.00;100654.28;5291575;28;20383;-69
2023/12/25 09:20:39;;;;;;;7.17;6.57;;;;;;;10.95;100.00;100659.41;5292459;28;20024;-69
2023/12/25 09:23:11;;;;;;;7.07;6.37;;;;;;;10.97;100.00;100674.09;5287282;28;20020;-70
2023/12/25 09:25:43;;;;;;;6.80;6.20;;;;;;;11.03;100.00;100675.47;5292077;28;20023;-69
2023/12/25 09:28:14;;;;;;;7.37;6.77;;;;;;;11.03;100.00;100683.34;5291180;28;20023;-69
2023/12/25 09:30:46;;;;;;;6.73;6.13;;;;;;;11.05;100.00;100691.13;5292381;28;20051;-67
2023/12/25 09:33:19;;;;;;;6.43;5.60;;;;;;;11.04;100.00;100694.66;5292353;28;20012;-67
2023/12/25 09:35:51;;;;;;;6.03;5.53;;;;;;;11.07;100.00;100710.19;5291941;28;20408;-67
2023/12/25 09:38:22;;;;;;;5.30;4.90;;;;;;;11.07;100.00;100711.03;5302463;28;20024;-66
2023/12/25 09:40:55;;;;;;;4.93;4.53;;;;;;;11.07;100.00;100705.78;5310288;28;20040;-67
2023/12/25 09:43:31;;;;;;;5.13;4.13;;;;;;;11.19;100.00;100714.66;5301789;28;20031;-67
2023/12/25 09:46:02;;;;;;;4.40;3.97;;;;;;;11.15;100.00;100717.56;5313023;28;20074;-67
2023/12/25 09:48:35;;;;;;;4.13;3.83;;;;;;;11.15;100.00;100720.19;5302267;28;20422;-66
2023/12/25 09:51:09;;;;;;;3.87;3.57;;;;;;;11.21;100.00;100714.53;5294948;28;20042;-67
2023/12/25 09:53:40;;;;;;;3.27;2.97;;;;;;;11.17;100.00;100710.47;5312933;28;20073;-64
2023/12/25 09:56:12;;;;;;;2.40;2.20;;;;;;;11.15;100.00;100701.84;5298793;28;20033;-70
2023/12/25 09:58:44;;;;;;;2.97;2.60;;;;;;;11.15;100.00;100691.34;5297881;28;20035;-70
2023/12/25 10:01:15;;;;;;;3.13;2.57;;;;;;;11.17;100.00;100690.31;5291521;28;20020;-72
2023/12/25 10:03:46;;;;;;;3.50;2.23;;;;;;;11.16;100.00;100696.50;5292133;28;20024;-70
2023/12/25 10:06:20;;;;;;;2.60;2.40;;;;;;;11.17;100.00;100694.72;5297215;28;20055;-70
2023/12/25 10:08:52;;;;;;;3.15;2.80;;;;;;;11.25;100.00;100709.03;5311924;28;20109;-72
2023/12/25 10:11:23;;;;;;;3.00;2.70;;;;;;;11.18;100.00;100696.41;5310841;28;20059;-72
2023/12/25 10:13:54;;;;;;;1.13;0.97;;;;;;;11.03;100.00;100703.47;5310699;28;20494;-71
2023/12/25 10:16:26;;;;;;;2.10;0.60;;;;;;;10.91;100.00;100710.34;5311737;28;20070;-71
2023/12/25 10:18:59;;;;;;;1.20;1.10;;;;;;;10.95;100.00;100727.53;5290929;28;20032;-70
2023/12/25 10:21:43;;;;;;;1.80;1.20;;;;;;;11.03;100.00;100711.34;5297917;28;20085;-69
2023/12/25 10:24:15;;;;;;;0.77;0.77;;;;;;;10.88;100.00;100727.94;5279781;28;20031;-71
2023/12/25 10:26:46;;;;;;;2.00;1.00;;;;;;;10.75;100.00;100725.25;5298086;28;20858;-71
2023/12/25 10:29:17;;;;;;;0.40;0.40;;;;;;;10.64;100.00;100733.78;5297426;28;20036;-72
2023/12/25 10:31:49;;;;;;;1.70;0.63;;;;;;;10.67;100.00;100724.03;5298390;28;20091;-72
2023/12/25 10:34:20;;;;;;;1.80;0.80;;;;;;;10.55;100.00;100716.00;5296822;28;20024;-71
2023/12/25 10:36:51;;;;;;;1.70;0.80;;;;;;;10.69;100.00;100722.16;5297959;28;20483;-70
2023/12/25 10:39:33;;;;;;;1.97;0.80;;;;;;;10.71;100.00;100731.63;5311672;28;20521;-70
2023/12/25 10:42:10;;;;;;;1.47;0.83;;;;;;;10.63;100.00;100718.13;5298292;28;20012;-69
2023/12/25 10:44:46;;;;;;;4.73;0.73;;;;;;;10.70;100.00;100718.63;5272784;28;20059;-70
2023/12/25 10:47:18;;;;;;;1.23;0.80;;;;;;;10.63;100.00;100716.38;5295091;28;20024;-70
2023/12/25 10:49:49;;;;;;;2.27;1.07;;;;;;;10.53;100.00;100721.34;5277661;28;20104;-72
2023/12/25 10:52:21;;;;;;;3.10;0.77;;;;;;;10.55;100.00;100717.78;5297771;28;20455;-72
2023/12/25 10:54:53;;;;;;;1.27;0.60;;;;;;;10.61;100.00;100723.47;5297149;28;20088;-71
2023/12/25 10:57:25;;;;;;;1.30;0.83;;;;;;;10.64;100.00;100719.84;5293287;28;20036;-72
2023/12/25 10:59:58;;;;;;;1.57;0.80;;;;;;;10.56;100.00;100720.31;5277360;28;20042;-70
2023/12/25 11:02:35;;;;;;;1.63;0.90;;;;;;;10.52;100.00;100719.66;5296903;28;20488;-70
2023/12/25 11:05:08;;;;;;;1.60;1.10;;;;;;;10.52;100.00;100716.22;5297492;28;20533;-69
2023/12/25 11:07:39;;;;;;;0.80;0.70;;;;;;;10.40;100.00;100715.97;5274434;28;20190;-70
2023/12/25 11:10:12;;;;;;;1.00;0.80;;;;;;;10.52;100.00;100722.25;5295937;28;20114;-71
2023/12/25 11:12:45;;;;;;;1.77;0.80;;;;;;;10.44;100.00;100729.72;5297456;28;20028;-72
2023/12/25 11:15:19;;;;;;;1.83;0.90;;;;;;;10.59;100.00;100738.47;5278839;28;20020;-69
2023/12/25 11:17:51;;;;;;;1.00;0.77;;;;;;;10.53;100.00;100726.59;5297287;28;20707;-70
2023/12/25 11:20:23;;;;;;;1.83;0.70;;;;;;;10.64;100.00;100728.53;5301353;28;20032;-69
2023/12/25 11:22:56;;;;;;;1.67;0.80;;;;;;;10.69;100.00;100733.50;5298106;28;20027;-71
2023/12/25 11:25:32;;;;;;;1.00;0.50;;;;;;;10.52;100.00;100731.91;5295641;28;20028;-71
2023/12/25 11:28:04;;;;;;;2.27;0.83;;;;;;;10.57;100.00;100719.38;5296038;28;20502;-72
2023/12/25 11:30:36;;;;;;;1.60;0.70;;;;;;;10.54;100.00;100716.97;5293430;28;20059;-72
2023/12/25 11:33:08;;;;;;;1.83;1.07;;;;;;;10.53;100.00;100717.88;5274171;28;20035;-70
2023/12/25 11:35:39;;;;;;;1.67;0.70;;;;;;;10.34;100.00;100702.44;5277532;28;20111;-74
2023/12/25 11:38:16;;;;;;;1.70;0.60;;;;;;;10.60;100.00;100727.03;5295569;28;20028;-69
2023/12/25 11:40:51;;;;;;;1.60;0.90;;;;;;;10.70;100.00;100739.59;5312612;28;20451;-68
2023/12/25 11:43:23;;;;;;;2.10;0.70;;;;;;;10.56;100.00;100728.16;5290532;28;20017;-68
2023/12/25 11:45:55;;;;;;;1.30;0.87;;;;;;;10.50;100.00;100718.06;5295573;28;20105;-69
2023/12/25 11:48:32;;;;;;;3.50;1.10;;;;;;;10.67;100.00;100718.78;5295898;28;20040;-68
2023/12/25 11:51:20;;;;;;;3.23;1.10;;;;;;;10.70;100.00;100726.47;5295420;28;20032;-68
2023/12/25 11:54:01;;;;;;;1.63;1.00;;;;;;;10.63;100.00;100712.91;5293149;28;20036;-68
2023/12/25 11:56:32;;;;;;;1.53;1.00;;;;;;;10.60;100.00;100716.56;5277685;28;20024;-68
2023/12/25 11:59:04;;;;;;;1.53;1.10;;;;;;;10.65;100.00;100716.28;5294811;28;20475;-69
2023/12/25 12:01:36;;;;;;;1.83;0.83;;;;;;;10.56;100.00;100716.88;5293336;28;20060;-69
2023/12/25 12:04:07;;;;;;;3.40;1.07;;;;;;;10.62;100.00;100716.47;5296201;28;20640;-70
2023/12/25 12:06:39;;;;;;;1.13;0.80;;;;;;;10.53;100.00;100718.72;5276328;28;20052;-69
2023/12/25 12:09:10;;;;;;;1.60;0.83;;;;;;;10.56;100.00;100720.31;5246052;28;20060;-69
2023/12/25 12:11:42;;;;;;;3.73;1.20;;;;;;;10.55;100.00;100716.00;5290441;28;20035;-69
2023/12/25 12:14:13;;;;;;;0.83;0.80;;;;;;;10.50;100.00;100715.47;5276811;28;20028;-70
2023/12/25 12:16:45;;;;;;;3.03;1.07;;;;;;;10.54;100.00;100724.81;5294562;28;20490;-67
2023/12/25 12:19:17;;;;;;;1.20;0.77;;;;;;;10.59;100.00;100708.81;5274679;28;20081;-67
2023/12/25 12:21:49;;;;;;;0.97;0.70;;;;;;;10.61;100.00;100720.84;5294929;28;20040;-69
2023/12/25 12:24:25;;;;;;;2.63;0.97;;;;;;;10.66;100.00;100723.22;5289131;28;20394;-67
2023/12/25 12:27:05;;;;;;;1.67;0.83;;;;;;;10.65;100.00;100724.13;5293815;28;20032;-68
2023/12/25 12:29:40;;;;;;;1.60;1.17;;;;;;;10.65;100.00;100735.47;5286730;28;20032;-69
2023/12/25 12:32:11;;;;;;;;;;;;;;;10.85;100.00;100727.28;5299351;28;20026;-68
2023/12/25 12:34:43;;;;;;;1.57;0.90;;;;;;;10.67;100.00;100721.41;5295515;28;19919;-68
2023/12/25 12:37:15;;;;;;;1.10;0.80;;;;;;;10.56;100.00;100727.34;5294685;28;20020;-69
2023/12/25 12:39:46;;;;;;;2.00;1.23;;;;;;;10.56;100.00;100743.88;5309917;28;20047;-69
2023/12/25 12:42:17;;;;;;;2.33;1.37;;;;;;;10.51;100.00;100736.31;5280772;28;20149;-69
2023/12/25 12:44:49;;;;;;;1.80;1.30;;;;;;;10.53;100.00;100738.81;5299487;28;20028;-69
2023/12/25 12:47:21;;;;;;;2.57;1.80;;;;;;;10.55;100.00;100726.50;5301065;28;20047;-70
2023/12/25 12:49:52;;;;;;;1.40;1.00;;;;;;;10.48;100.00;100717.31;5296301;28;20035;-70
2023/12/25 12:52:24;;;;;;;2.07;0.70;;;;;;;10.53;100.00;100723.13;5289931;28;20073;-70
2023/12/25 12:54:55;;;;;;;4.40;1.33;;;;;;;10.44;100.00;100708.78;5291820;28;20039;-70
2023/12/25 12:57:27;;;;;;;1.57;0.90;;;;;;;10.54;100.00;100714.34;5303767;28;20023;-71
2023/12/25 12:59:58;;;;;;;2.70;0.87;;;;;;;10.40;100.00;100707.31;5296153;28;20642;-70
2023/12/25 13:02:30;;;;;;;1.83;1.00;;;;;;;10.48;100.00;100699.84;5262559;28;20210;-70
2023/12/25 13:05:01;;;;;;;2.10;0.90;;;;;;;10.43;100.00;100707.13;5238194;28;20532;-69
2023/12/25 13:07:33;;;;;;;3.43;0.80;;;;;;;10.39;100.00;100706.44;5288251;28;20051;-69
2023/12/25 13:10:05;;;;;;;3.63;1.03;;;;;;;10.39;100.00;100709.06;5294694;28;20110;-69
2023/12/25 13:12:36;;;;;;;3.83;1.17;;;;;;;10.37;100.00;100695.22;5297673;28;20031;-70
2023/12/25 13:15:08;;;;;;;3.20;1.23;;;;;;;10.37;100.00;100705.69;5294801;28;20059;-71
2023/12/25 13:17:39;;;;;;;4.37;1.50;;;;;;;10.36;100.00;100708.41;5295222;28;20028;-71
2023/12/25 13:20:11;;;;;;;3.13;1.13;;;;;;;10.35;100.00;100714.59;5298987;28;20076;-69
2023/12/25 13:22:42;;;;;;;4.23;1.43;;;;;;;10.34;100.00;100718.13;5272103;28;20020;-69
2023/12/25 13:25:13;;;;;;;3.80;1.13;;;;;;;10.25;100.00;100733.47;5296575;28;20035;-69
2023/12/25 13:27:45;;;;;;;3.30;1.43;;;;;;;10.39;100.00;100719.53;5295731;28;20059;-70
2023/12/25 13:30:16;;;;;;;5.60;1.67;;;;;;;10.36;100.00;100706.66;5295221;28;20043;-70
2023/12/25 13:32:47;;;;;;;4.87;1.50;;;;;;;10.36;100.00;100709.28;5298612;28;20085;-70
2023/12/25 13:35:19;;;;;;;3.10;0.90;;;;;;;10.31;100.00;100711.31;5294642;28;20495;-70
2023/12/25 13:37:50;;;;;;;2.77;1.17;;;;;;;10.37;100.00;100724.03;5273091;28;20696;-70
2023/12/25 13:40:22;;;;;;;1.60;0.80;;;;;;;10.36;100.00;100724.97;5296290;28;20085;-70
2023/12/25 13:42:53;;;;;;;2.30;1.03;;;;;;;10.33;100.00;100732.16;5286178;28;20036;-71
2023/12/25 13:45:25;;;;;;;3.33;1.27;;;;;;;10.37;100.00;100721.41;5270038;28;20307;-70
2023/12/25 13:47:56;;;;;;;2.37;1.00;;;;;;;10.44;100.00;100721.06;5291101;28;20036;-70
2023/12/25 13:50:27;;;;;;;2.30;0.90;;;;;;;10.45;100.00;100715.72;5263920;28;21930;-70
2023/12/25 13:52:59;;;;;;;1.80;0.97;;;;;;;10.38;100.00;100715.25;5271957;28;20869;-72
2023/12/25 13:55:30;;;;;;;3.27;1.13;;;;;;;10.37;100.00;100692.63;5295554;28;20024;-72
2023/12/25 13:58:02;;;;;;;4.73;1.07;;;;;;;10.48;100.00;100715.56;5297795;28;20526;-71
2023/12/25 14:00:33;;;;;;;2.93;1.40;;;;;;;10.45;100.00;100704.41;5297294;28;20020;-71
2023/12/25 14:03:04;;;;;;;3.37;0.87;;;;;;;10.48;100.00;100706.84;5296401;28;20032;-70
2023/12/25 14:05:36;;;;;;;2.20;0.73;;;;;;;10.47;100.00;100706.00;5280253;28;20402;-70
2023/12/25 14:08:07;;;;;;;2.60;1.13;;;;;;;10.46;100.00;100704.28;5297982;28;20043;-69
2023/12/25 14:10:39;;;;;;;3.47;1.10;;;;;;;10.51;100.00;100709.28;5298789;28;20023;-71
2023/12/25 14:13:10;;;;;;;1.60;0.70;;;;;;;10.44;100.00;100702.72;5294830;28;20059;-69
2023/12/25 14:15:41;;;;;;;1.53;0.87;;;;;;;10.44;100.00;100707.97;5298296;28;20032;-72
2023/12/25 14:18:13;;;;;;;1.93;0.80;;;;;;;10.53;100.00;100710.88;5270151;28;20026;-71
2023/12/25 14:20:44;;;;;;;3.00;0.90;;;;;;;10.54;100.00;100706.50;5297666;28;20027;-71
2023/12/25 14:23:16;;;;;;;2.10;0.97;;;;;;;10.57;100.00;100708.91;5291227;28;20123;-72
2023/12/25 14:25:48;;;;;;;3.67;1.27;;;;;;;10.52;100.00;100703.13;5299238;28;20081;-73
2023/12/25 14:28:20;;;;;;;2.17;1.00;;;;;;;10.48;100.00;100710.31;5273700;28;20449;-72
2023/12/25 14:30:51;;;;;;;2.97;1.30;;;;;;;10.51;100.00;100711.88;5295249;28;20035;-71
2023/12/25 14:33:23;;;;;;;2.93;1.13;;;;;;;10.53;100.00;100712.66;5285122;28;20042;-70
2023/12/25 14:35:54;;;;;;;1.50;1.30;;;;;;;10.57;100.00;100708.06;5297062;28;20046;-71
2023/12/25 14:38:25;;;;;;;2.63;1.30;;;;;;;10.55;100.00;100704.69;5304905;28;20202;-70
2023/12/25 14:40:57;;;;;;;4.97;2.10;;;;;;;10.59;100.00;100703.56;5288026;28;20032;-70
2023/12/25 14:43:28;;;;;;;5.33;2.33;;;;;;;10.53;100.00;100691.69;5299887;28;20396;-72
2023/12/25 14:45:59;;;;;;;3.43;2.20;;;;;;;10.49;100.00;100690.22;5298566;28;20028;-72
2023/12/25 14:48:31;;;;;;;2.60;1.93;;;;;;;10.54;100.00;100693.41;5299217;28;20617;-74
2023/12/25 14:51:03;;;;;;;3.17;2.03;;;;;;;10.59;100.00;100703.56;5297245;28;20549;-74
2023/12/25 14:53:36;;;;;;;5.47;2.37;;;;;;;10.60;100.00;100703.47;5293554;28;20447;-75
2023/12/25 14:56:07;;;;;;;2.60;1.80;;;;;;;10.53;100.00;100696.94;5284112;28;20070;-84
2023/12/25 14:58:38;;;;;;;4.93;2.83;;;;;;;10.49;100.00;100679.75;5292078;28;20115;-76
2023/12/25 15:01:10;;;;;;;5.57;2.80;;;;;;;10.51;100.00;100686.56;5297470;28;20107;-83
2023/12/25 15:03:41;;;;;;;4.43;4.00;;;;;;;10.68;100.00;100696.91;5298939;28;20487;-74
2023/12/25 15:06:13;;;;;;;7.50;4.80;;;;;;;10.53;100.00;100668.13;5304945;28;20079;-83
2023/12/25 15:08:44;;;;;;;6.60;5.37;;;;;;;10.50;100.00;100650.00;5300769;28;20041;-83
2023/12/25 15:11:18;;;;;;;6.80;6.10;;;;;;;10.74;100.00;100686.03;5297720;28;20077;-76
2023/12/25 15:13:49;;;;;;;10.03;7.47;;;;;;;10.73;100.00;100700.09;5295199;28;20028;-74
2023/12/25 15:16:20;;;;;;;7.03;6.30;;;;;;;10.78;100.00;100695.41;5279610;28;20047;-74
2023/12/25 15:18:52;;;;;;;5.50;4.57;;;;;;;10.82;100.00;100696.88;5279120;28;20035;-74
2023/12/25 15:21:23;;;;;;;6.07;5.33;;;;;;;10.77;100.00;100693.69;5297309;28;20124;-76
2023/12/25 15:23:54;;;;;;;4.90;4.50;;;;;;;10.83;100.00;100698.56;5295903;28;20055;-76
2023/12/25 15:26:26;;;;;;;10.20;5.53;;;;;;;10.77;100.00;100670.13;5296635;28;20082;-79
2023/12/25 15:28:58;;;;;;;5.00;4.40;;;;;;;10.86;100.00;100687.88;5298294;28;20027;-74
2023/12/25 15:31:29;;;;;;;6.80;4.70;;;;;;;10.91;100.00;100692.00;5298072;28;20032;-72
2023/12/25 15:34:01;;;;;;;7.23;5.13;;;;;;;10.89;100.00;100692.94;5294964;28;20119;-73
2023/12/25 15:36:32;;;;;;;7.50;5.07;;;;;;;10.86;100.00;100682.66;5295371;28;20047;-74
2023/12/25 15:39:04;;;;;;;12.33;5.80;;;;;;;10.88;100.00;100685.16;5303753;28;20473;-78
2023/12/25 15:41:35;;;;;;;21.30;13.47;;;;;;;10.83;100.00;100669.75;5296089;28;20043;-73
2023/12/25 15:44:07;;;;;;;8.47;7.30;;;;;;;10.85;100.00;100675.75;5290019;28;20029;-79
2023/12/25 15:46:40;;;;;;;8.47;7.50;;;;;;;10.89;100.00;100682.44;5281293;28;20107;-78
2023/12/25 15:49:12;;;;;;;10.77;6.43;;;;;;;10.92;100.00;100684.03;5295887;28;20059;-89
2023/12/25 15:51:43;;;;;;;8.40;7.40;;;;;;;10.84;100.00;100668.81;5299502;28;20281;-86
2023/12/25 15:54:14;;;;;;;7.40;6.70;;;;;;;10.93;100.00;100685.72;5279263;28;20062;-82
2023/12/25 15:56:46;;;;;;;7.83;6.77;;;;;;;11.03;100.00;100699.06;5297500;28;20112;-78
2023/12/25 15:59:18;;;;;;;7.73;6.83;;;;;;;11.05;100.00;100680.66;5296446;28;20038;-78
2023/12/25 16:01:50;;;;;;;5.53;5.03;;;;;;;11.00;100.00;100681.78;5295721;28;20032;-75
2023/12/25 16:04:22;;;;;;;9.33;5.90;;;;;;;11.09;100.00;100689.97;5287939;28;20028;-78
2023/12/25 16:06:53;;;;;;;12.87;5.40;;;;;;;11.06;100.00;100695.41;5277506;28;20055;-83
2023/12/25 16:09:25;;;;;;;6.80;5.80;;;;;;;11.02;100.00;100681.66;5293562;28;20084;-81
2023/12/25 16:11:56;;;;;;;5.97;5.43;;;;;;;11.07;100.00;100689.22;5281110;28;20035;-79
2023/12/25 16:14:27;;;;;;;7.33;5.90;;;;;;;11.05;100.00;100691.94;5296370;28;20581;-76
2023/12/25 16:16:59;;;;;;;8.07;7.27;;;;;;;11.06;100.00;100696.25;5296956;28;20024;-77
2023/12/25 16:19:31;;;;;;;6.33;5.73;;;;;;;10.97;100.00;100688.97;5277943;28;20036;-83
2023/12/25 16:22:02;;;;;;;8.27;6.23;;;;;;;11.01;100.00;100711.44;5296160;28;20079;-77
2023/12/25 16:24:33;;;;;;;8.07;6.60;;;;;;;10.98;100.00;100706.38;5295888;28;20051;-84
2023/12/25 16:27:05;;;;;;;6.90;6.23;;;;;;;11.10;100.00;100721.31;5297782;28;20031;-74
2023/12/25 16:29:36;;;;;;;6.20;5.70;;;;;;;11.13;100.00;100709.81;5296053;28;20035;-74
2023/12/25 16:32:07;;;;;;;5.77;5.27;;;;;;;11.16;100.00;100708.75;5295494;28;20543;-77
2023/12/25 16:34:39;;;;;;;4.10;3.00;;;;;;;11.16;100.00;100700.91;5278472;28;20066;-74
2023/12/25 16:37:11;;;;;;;5.40;4.73;;;;;;;11.07;100.00;100690.06;5296227;28;20051;-84
2023/12/25 16:39:42;;;;;;;4.27;3.87;;;;;;;11.17;100.00;100700.78;5305834;28;20035;-78
2023/12/25 16:42:14;;;;;;;2.63;2.43;;;;;;;11.21;100.00;100698.81;5277018;28;20032;-80
2023/12/25 16:44:45;;;;;;;2.83;2.57;;;;;;;11.17;100.00;100690.31;5297903;28;20024;-79
2023/12/25 16:47:17;;;;;;;4.10;2.37;;;;;;;11.10;100.00;100679.38;5273143;28;20028;-77
2023/12/25 16:49:48;;;;;;;3.77;2.87;;;;;;;11.09;100.00;100684.72;5293389;28;20112;-75
2023/12/25 16:52:19;;;;;;;2.00;1.77;;;;;;;11.08;100.00;100694.34;5291248;28;20021;-75
2023/12/25 16:54:51;;;;;;;3.03;1.70;;;;;;;11.00;100.00;100676.53;5294388;28;20040;-80
2023/12/25 16:57:22;;;;;;;2.67;1.43;;;;;;;11.02;100.00;100686.91;5294905;28;20489;-76
2023/12/25 16:59:59;;;;;;;2.33;1.97;;;;;;;10.97;100.00;100679.34;5287713;28;20089;-81
2023/12/25 17:02:30;;;;;;;2.10;1.20;;;;;;;10.98;100.00;100681.03;5289406;28;20028;-78
2023/12/25 17:05:02;;;;;;;1.90;1.27;;;;;;;10.95;100.00;100685.63;5295512;28;20440;-77
2023/12/25 17:07:33;;;;;;;2.70;1.20;;;;;;;10.93;100.00;100690.09;5295339;28;20130;-79
2023/12/25 17:10:05;;;;;;;1.93;1.20;;;;;;;11.02;100.00;100707.88;5277875;28;20023;-82
2023/12/25 17:12:36;;;;;;;1.87;1.27;;;;;;;10.93;100.00;100677.00;5277136;28;20222;-83
2023/12/25 17:15:08;;;;;;;2.00;1.10;;;;;;;10.90;100.00;100688.53;5296201;28;20107;-76
2023/12/25 17:17:41;;;;;;;2.87;1.20;;;;;;;10.83;100.00;100687.25;5277120;28;20680;-80
2023/12/25 17:20:14;;;;;;;1.50;1.27;;;;;;;10.89;100.00;100692.09;5276965;28;20028;-76
2023/12/25 17:22:45;;;;;;;1.57;1.30;;;;;;;10.83;100.00;100693.34;5275008;28;20036;-74
2023/12/25 17:25:17;;;;;;;1.63;1.23;;;;;;;10.94;100.00;100691.81;5294818;28;20035;-74
2023/12/25 17:27:49;;;;;;;2.03;1.40;;;;;;;10.86;100.00;100676.56;5294008;28;20043;-74
2023/12/25 17:30:21;;;;;;;3.93;1.80;;;;;;;10.92;100.00;100691.06;5298870;28;20712;-74
2023/12/25 17:32:53;;;;;;;3.37;1.97;;;;;;;10.92;100.00;100697.16;5299525;28;20032;-76
2023/12/25 17:35:24;;;;;;;2.50;1.90;;;;;;;10.92;100.00;100689.28;5299990;28;20103;-78
2023/12/25 17:37:57;;;;;;;4.07;2.10;;;;;;;10.92;100.00;100693.69;5305396;28;20092;-75
2023/12/25 17:40:29;;;;;;;3.73;2.20;;;;;;;10.84;100.00;100689.75;5316003;28;20070;-86
2023/12/25 17:43:01;;;;;;;2.40;2.13;;;;;;;10.86;100.00;100708.00;5304276;28;20023;-75
2023/12/25 17:45:32;;;;;;;2.20;1.97;;;;;;;10.74;100.00;100710.47;5288007;28;20475;-77
2023/12/25 17:48:04;;;;;;;2.40;2.10;;;;;;;10.67;100.00;100700.47;5297283;28;20493;-79
2023/12/25 17:50:36;;;;;;;5.63;2.30;;;;;;;10.71;100.00;100709.81;5311040;28;20031;-82
2023/12/25 17:53:07;;;;;;;4.13;1.90;;;;;;;10.74;100.00;100705.22;5301149;28;20085;-82
2023/12/25 17:55:38;;;;;;;1.90;1.70;;;;;;;10.72;100.00;100711.50;5299490;28;20060;-79
2023/12/25 17:58:10;;;;;;;3.37;2.10;;;;;;;10.64;100.00;100704.97;5299383;28;20030;-84
2023/12/25 18:00:41;;;;;;;1.60;1.47;;;;;;;10.79;100.00;100686.59;5281876;28;20115;-79
2023/12/25 18:03:13;;;;;;;1.90;1.33;;;;;;;10.64;100.00;100681.41;5304101;28;20034;-79
2023/12/25 18:05:44;;;;;;;2.10;1.50;;;;;;;10.75;100.00;100685.13;5287584;28;20032;-82
2023/12/25 18:08:15;;;;;;;2.40;1.40;;;;;;;10.80;100.00;100683.06;5295164;28;20038;-81
2023/12/25 18:10:48;;;;;;;3.33;0.90;;;;;;;10.85;100.00;100678.38;5278700;28;20020;-80
2023/12/25 18:13:19;;;;;;;1.70;1.10;;;;;;;10.80;100.00;100671.72;5267183;28;20020;-89
2023/12/25 18:15:52;;;;;;;2.17;1.17;;;;;;;10.87;100.00;100678.25;5299812;28;20473;-86
2023/12/25 18:18:25;;;;;;;1.50;0.90;;;;;;;10.82;100.00;100675.91;5299685;28;20063;-76
2023/12/25 18:20:56;;;;;;;4.13;1.13;;;;;;;10.84;100.00;100668.81;5298949;28;20024;-80
2023/12/25 18:23:28;;;;;;;2.20;1.10;;;;;;;10.81;100.00;100671.63;5300204;28;20105;-79
2023/12/25 18:25:59;;;;;;;0.70;0.70;;;;;;;10.81;100.00;100674.25;5299030;28;20514;-92
2023/12/25 18:28:31;;;;;;;0.83;0.67;;;;;;;10.93;100.00;100677.84;5297121;28;20032;-76
2023/12/25 18:31:02;;;;;;;2.33;0.73;;;;;;;10.91;100.00;100669.25;5298642;28;20056;-80
2023/12/25 18:33:33;;;;;;;3.67;0.67;;;;;;;10.97;100.00;100668.03;5298776;28;20024;-76
2023/12/25 18:36:05;;;;;;;1.60;1.27;;;;;;;11.00;100.00;100659.94;5298455;28;20024;-76
2023/12/25 18:38:36;;;;;;;2.20;0.90;;;;;;;10.87;100.00;100646.81;5297558;28;20036;-81
2023/12/25 18:41:08;;;;;;;1.17;0.90;;;;;;;10.96;100.00;100666.34;5303144;28;20020;-75
2023/12/25 18:43:39;;;;;;;0.73;0.70;;;;;;;10.99;100.00;100668.78;5307759;28;20119;-82
2023/12/25 18:46:11;;;;;;;2.57;1.03;;;;;;;11.03;100.00;100661.56;5283152;28;20036;-81
2023/12/25 18:48:42;;;;;;;1.07;0.73;;;;;;;11.00;100.00;100652.94;5275886;28;20032;-75
2023/12/25 18:51:13;;;;;;;0.80;0.70;;;;;;;10.98;100.00;100654.81;5298439;28;20467;-79
2023/12/25 18:53:45;;;;;;;1.00;0.87;;;;;;;10.97;100.00;100641.81;5298112;28;20047;-76
2023/12/25 18:56:16;;;;;;;3.13;0.70;;;;;;;10.91;100.00;100626.50;5295311;28;20069;-82
2023/12/25 18:58:48;;;;;;;1.00;0.60;;;;;;;11.10;100.00;100642.69;5276097;28;20115;-78
2023/12/25 19:01:19;;;;;;;1.40;0.60;;;;;;;11.06;100.00;100635.13;5296851;28;20411;-73
2023/12/25 19:03:53;;;;;;;0.60;0.60;;;;;;;11.10;100.00;100632.22;5267394;28;20079;-73
2023/12/25 19:06:24;;;;;;;0.70;0.47;;;;;;;10.97;100.00;100626.09;5289053;28;20490;-75
2023/12/25 19:08:56;;;;;;;0.63;0.60;;;;;;;10.85;100.00;100612.88;5296828;28;20020;-73
2023/12/25 19:11:27;;;;;;;0.80;0.80;;;;;;;11.06;100.00;100633.38;5290383;28;20028;-75
2023/12/25 19:14:06;;;;;;;1.53;1.03;;;;;;;11.00;100.00;100625.88;5296597;28;20020;-76
2023/12/25 19:16:40;;;;;;;1.10;0.80;;;;;;;10.91;100.00;100624.69;5289144;28;20043;-74
2023/12/25 19:19:11;;;;;;;0.98;0.88;;;;;;;11.03;100.00;100620.44;5279249;28;20077;-73
2023/12/25 19:21:43;;;;;;;0.93;0.90;;;;;;;10.85;100.00;100605.00;5287183;28;20017;-73
2023/12/25 19:24:14;;;;;;;1.27;0.70;;;;;;;10.88;100.00;100617.91;5294053;28;20514;-78
2023/12/25 19:26:45;;;;;;;1.20;0.60;;;;;;;10.86;100.00;100617.16;5296891;28;20067;-75
2023/12/25 19:29:17;;;;;;;0.60;0.53;;;;;;;10.96;100.00;100613.94;5297536;28;20039;-73
2023/12/25 19:31:50;;;;;;;0.60;0.60;;;;;;;10.91;100.00;100614.22;5297845;28;21008;-85
2023/12/25 19:34:22;;;;;;;3.47;0.80;;;;;;;10.96;100.00;100614.75;5297022;28;20115;-75
2023/12/25 19:36:53;;;;;;;0.53;0.50;;;;;;;10.87;100.00;100594.41;5296131;28;20128;-80
2023/12/25 19:39:24;;;;;;;1.77;1.07;;;;;;;11.03;100.00;100609.13;5294258;28;20027;-72
2023/12/25 19:41:56;;;;;;;0.70;0.60;;;;;;;11.02;100.00;100597.81;5312126;28;20367;-74
2023/12/25 19:44:28;;;;;;;0.90;0.80;;;;;;;10.98;100.00;100591.06;5293638;28;20026;-71
2023/12/25 19:47:00;;;;;;;0.60;0.60;;;;;;;10.95;100.00;100591.28;5292640;28;20039;-70
2023/12/25 19:49:31;;;;;;;1.67;0.60;;;;;;;10.92;100.00;100588.88;5295449;28;20499;-73
2023/12/25 19:52:03;;;;;;;0.97;0.80;;;;;;;11.01;100.00;100596.13;5295090;28;20038;-71
2023/12/25 19:54:34;;;;;;;0.70;0.70;;;;;;;10.92;100.00;100581.00;5294467;28;20081;-72
2023/12/25 19:57:05;;;;;;;0.70;0.60;;;;;;;11.06;100.00;100585.34;5294567;28;20026;-74
2023/12/25 19:59:37;;;;;;;1.43;1.03;;;;;;;10.96;100.00;100577.25;5292625;28;20164;-71
2023/12/25 20:02:09;;;;;;;0.63;0.60;;;;;;;11.00;100.00;100579.56;5276749;28;20031;-68
2023/12/25 20:04:40;;;;;;;1.20;0.70;;;;;;;10.91;100.00;100558.38;5295405;28;20028;-69
2023/12/25 20:07:11;;;;;;;1.10;0.83;;;;;;;11.03;100.00;100570.66;5288670;28;20047;-73
2023/12/25 20:09:43;;;;;;;1.10;0.80;;;;;;;10.97;100.00;100581.56;5277430;28;20729;-70
2023/12/25 20:12:14;;;;;;;1.10;0.90;;;;;;;10.92;100.00;100583.63;5291303;28;20035;-74
2023/12/25 20:14:45;;;;;;;1.17;0.97;;;;;;;10.94;100.00;100579.13;5295627;28;20031;-71
2023/12/25 20:17:17;;;;;;;0.90;0.80;;;;;;;10.97;100.00;100578.94;5292550;28;20046;-73
2023/12/25 20:19:48;;;;;;;2.93;1.10;;;;;;;11.03;100.00;100580.31;5296230;28;20505;-73
2023/12/25 20:22:20;;;;;;;1.00;0.90;;;;;;;10.91;100.00;100559.19;5301318;28;20016;-77
2023/12/25 20:24:52;;;;;;;1.50;1.30;;;;;;;10.91;100.00;100566.25;5292786;28;20069;-75
2023/12/25 20:27:24;;;;;;;1.60;1.20;;;;;;;10.81;100.00;100566.00;5292581;28;20035;-77
2023/12/25 20:29:55;;;;;;;2.33;1.40;;;;;;;10.99;100.00;100566.56;5298244;28;20032;-74
2023/12/25 20:32:26;;;;;;;3.40;1.40;;;;;;;11.03;100.00;100568.03;5295225;28;20035;-72
2023/12/25 20:34:58;;;;;;;3.17;1.40;;;;;;;10.94;100.00;100568.66;5294880;28;20123;-74
2023/12/25 20:37:32;;;;;;;3.17;1.77;;;;;;;10.86;100.00;100571.75;5294262;28;20028;-74
2023/12/25 20:40:04;;;;;;;1.70;1.60;;;;;;;10.80;100.00;100554.69;5293024;28;20028;-73
2023/12/25 20:42:36;;;;;;;2.13;1.93;;;;;;;10.74;100.00;100542.81;5298422;28;20032;-71
2023/12/25 20:45:08;;;;;;;2.17;1.50;;;;;;;10.86;100.00;100545.56;5309397;28;20036;-74